sensor_id;sensor_type;location;lat;lon;timestamp;temperature;humidity
25250;DHT22;13201;51.148;13.738;2023-07-13T00:01:48;23.90;97.90
25250;DHT22;13201;51.148;13.738;2023-07-13T00:04:16;23.80;98.50
25250;DHT22;13201;51.148;13.738;2023-07-13T00:06:44;23.70;99.20
25250;DHT22;13201;51.148;13.738;2023-07-13T00:09:16;23.40;99.90
25250;DHT22;13201;51.148;13.738;2023-07-13T00:11:43;23.20;99.90
25250;DHT22;13201;51.148;13.738;2023-07-13T00:14:10;23.30;99.90
25250;DHT22;13201;51.148;13.738;2023-07-13T00:16:36;23.20;99.90
25250;DHT22;13201;51.148;13.738;2023-07-13T00:19:02;23.30;99.90
25250;DHT22;13201;51.148;13.738;2023-07-13T00:21:28;23.30;99.90
25250;DHT22;13201;51.148;13.738;2023-07-13T00:23:54;23.30;99.90
25250;DHT22;13201;51.148;13.738;2023-07-13T00:26:19;23.20;99.90
25250;DHT22;13201;51.148;13.738;2023-07-13T00:28:45;23.20;99.90
25250;DHT22;13201;51.148;13.738;2023-07-13T00:31:12;23.20;99.90
25250;DHT22;13201;51.148;13.738;2023-07-13T00:33:40;23.10;99.90
25250;DHT22;13201;51.148;13.738;2023-07-13T00:36:06;23.00;99.90
25250;DHT22;13201;51.148;13.738;2023-07-13T00:38:31;23.00;99.90
25250;DHT22;13201;51.148;13.738;2023-07-13T00:40:57;22.80;99.90
25250;DHT22;13201;51.148;13.738;2023-07-13T00:43:26;22.70;99.90
25250;DHT22;13201;51.148;13.738;2023-07-13T00:48:24;22.50;99.90
25250;DHT22;13201;51.148;13.738;2023-07-13T00:50:53;22.50;99.90
25250;DHT22;13201;51.148;13.738;2023-07-13T00:53:20;22.30;99.90
25250;DHT22;13201;51.148;13.738;2023-07-13T00:55:49;22.10;99.90
25250;DHT22;13201;51.148;13.738;2023-07-13T00:58:15;22.20;99.90
25250;DHT22;13201;51.148;13.738;2023-07-13T01:00:41;22.30;99.90
25250;DHT22;13201;51.148;13.738;2023-07-13T01:03:07;22.30;99.90
25250;DHT22;13201;51.148;13.738;2023-07-13T01:29:43;21.20;99.90
25250;DHT22;13201;51.148;13.738;2023-07-13T01:32:11;20.90;99.90
25250;DHT22;13201;51.148;13.738;2023-07-13T01:34:37;21.10;99.90
25250;DHT22;13201;51.148;13.738;2023-07-13T01:37:06;21.10;99.90
25250;DHT22;13201;51.148;13.738;2023-07-13T01:39:32;21.10;99.90
25250;DHT22;13201;51.148;13.738;2023-07-13T01:41:58;21.00;99.90
25250;DHT22;13201;51.148;13.738;2023-07-13T01:44:24;21.10;99.90
25250;DHT22;13201;51.148;13.738;2023-07-13T01:46:50;21.20;99.90
25250;DHT22;13201;51.148;13.738;2023-07-13T01:49:15;21.20;99.90
25250;DHT22;13201;51.148;13.738;2023-07-13T01:51:41;21.10;99.90
25250;DHT22;13201;51.148;13.738;2023-07-13T01:54:07;21.10;99.90
25250;DHT22;13201;51.148;13.738;2023-07-13T01:56:33;21.20;99.90
25250;DHT22;13201;51.148;13.738;2023-07-13T01:58:58;21.30;99.90
25250;DHT22;13201;51.148;13.738;2023-07-13T02:01:24;21.20;99.90
25250;DHT22;13201;51.148;13.738;2023-07-13T02:03:50;21.20;99.90
25250;DHT22;13201;51.148;13.738;2023-07-13T02:06:15;21.10;99.90
25250;DHT22;13201;51.148;13.738;2023-07-13T02:08:41;21.30;99.90
25250;DHT22;13201;51.148;13.738;2023-07-13T02:11:08;21.30;99.90
25250;DHT22;13201;51.148;13.738;2023-07-13T02:13:34;21.40;99.90
25250;DHT22;13201;51.148;13.738;2023-07-13T02:15:59;21.40;99.90
25250;DHT22;13201;51.148;13.738;2023-07-13T02:18:26;21.50;99.90
25250;DHT22;13201;51.148;13.738;2023-07-13T02:20:51;21.40;99.90
25250;DHT22;13201;51.148;13.738;2023-07-13T02:23:17;21.50;99.90
25250;DHT22;13201;51.148;13.738;2023-07-13T02:25:44;21.30;99.90
25250;DHT22;13201;51.148;13.738;2023-07-13T02:28:10;21.40;99.90
25250;DHT22;13201;51.148;13.738;2023-07-13T02:30:36;21.30;99.90
25250;DHT22;13201;51.148;13.738;2023-07-13T02:33:02;21.30;99.90
25250;DHT22;13201;51.148;13.738;2023-07-13T02:35:28;21.30;99.90
25250;DHT22;13201;51.148;13.738;2023-07-13T02:37:53;21.20;99.90
25250;DHT22;13201;51.148;13.738;2023-07-13T02:40:19;21.30;99.90
25250;DHT22;13201;51.148;13.738;2023-07-13T02:42:45;21.00;99.90
25250;DHT22;13201;51.148;13.738;2023-07-13T02:45:11;21.20;99.90
25250;DHT22;13201;51.148;13.738;2023-07-13T02:47:40;21.10;99.90
25250;DHT22;13201;51.148;13.738;2023-07-13T02:50:06;21.10;99.90
25250;DHT22;13201;51.148;13.738;2023-07-13T02:52:32;20.90;99.90
25250;DHT22;13201;51.148;13.738;2023-07-13T02:54:58;21.00;99.90
25250;DHT22;13201;51.148;13.738;2023-07-13T02:57:24;20.80;99.90
25250;DHT22;13201;51.148;13.738;2023-07-13T02:59:49;20.80;99.90
25250;DHT22;13201;51.148;13.738;2023-07-13T03:02:15;20.90;99.90
25250;DHT22;13201;51.148;13.738;2023-07-13T03:04:41;20.90;99.90
25250;DHT22;13201;51.148;13.738;2023-07-13T03:07:07;20.90;99.90
25250;DHT22;13201;51.148;13.738;2023-07-13T03:09:34;20.70;99.90
25250;DHT22;13201;51.148;13.738;2023-07-13T03:12:00;20.80;99.90
25250;DHT22;13201;51.148;13.738;2023-07-13T03:14:26;20.80;99.90
25250;DHT22;13201;51.148;13.738;2023-07-13T03:16:52;20.70;99.90
25250;DHT22;13201;51.148;13.738;2023-07-13T03:19:18;20.70;99.90
25250;DHT22;13201;51.148;13.738;2023-07-13T03:21:44;20.80;99.90
25250;DHT22;13201;51.148;13.738;2023-07-13T03:24:09;20.80;99.90
25250;DHT22;13201;51.148;13.738;2023-07-13T03:26:35;20.70;99.90
25250;DHT22;13201;51.148;13.738;2023-07-13T03:29:01;20.70;99.90
25250;DHT22;13201;51.148;13.738;2023-07-13T03:31:29;20.70;99.90
25250;DHT22;13201;51.148;13.738;2023-07-13T03:33:56;20.80;99.90
25250;DHT22;13201;51.148;13.738;2023-07-13T03:36:25;20.70;99.90
25250;DHT22;13201;51.148;13.738;2023-07-13T03:38:57;20.70;99.90
25250;DHT22;13201;51.148;13.738;2023-07-13T03:41:23;20.70;99.90
25250;DHT22;13201;51.148;13.738;2023-07-13T03:43:50;20.50;99.90
25250;DHT22;13201;51.148;13.738;2023-07-13T03:46:17;20.50;99.90
25250;DHT22;13201;51.148;13.738;2023-07-13T03:48:44;20.50;99.90
25250;DHT22;13201;51.148;13.738;2023-07-13T03:51:11;20.60;99.90
25250;DHT22;13201;51.148;13.738;2023-07-13T03:53:41;20.60;99.90
25250;DHT22;13201;51.148;13.738;2023-07-13T03:56:07;20.50;99.90
25250;DHT22;13201;51.148;13.738;2023-07-13T03:58:36;20.30;99.90
25250;DHT22;13201;51.148;13.738;2023-07-13T04:01:04;20.30;99.90
25250;DHT22;13201;51.148;13.738;2023-07-13T04:03:31;20.30;99.90
25250;DHT22;13201;51.148;13.738;2023-07-13T04:05:59;20.30;99.90
25250;DHT22;13201;51.148;13.738;2023-07-13T04:08:30;20.30;99.90
25250;DHT22;13201;51.148;13.738;2023-07-13T04:10:57;20.30;99.90
25250;DHT22;13201;51.148;13.738;2023-07-13T04:13:23;20.30;99.90
25250;DHT22;13201;51.148;13.738;2023-07-13T04:15:49;20.40;99.90
25250;DHT22;13201;51.148;13.738;2023-07-13T04:18:15;20.50;99.90
25250;DHT22;13201;51.148;13.738;2023-07-13T04:20:41;20.50;99.90
25250;DHT22;13201;51.148;13.738;2023-07-13T04:23:06;20.70;99.90
25250;DHT22;13201;51.148;13.738;2023-07-13T04:25:32;20.80;99.90
25250;DHT22;13201;51.148;13.738;2023-07-13T04:27:58;20.80;99.90
25250;DHT22;13201;51.148;13.738;2023-07-13T04:30:24;20.90;99.90
25250;DHT22;13201;51.148;13.738;2023-07-13T04:32:52;20.70;99.90
25250;DHT22;13201;51.148;13.738;2023-07-13T04:35:21;20.60;99.90
25250;DHT22;13201;51.148;13.738;2023-07-13T04:37:50;20.70;99.90
25250;DHT22;13201;51.148;13.738;2023-07-13T04:40:17;20.70;99.90
25250;DHT22;13201;51.148;13.738;2023-07-13T04:42:43;20.70;99.90
25250;DHT22;13201;51.148;13.738;2023-07-13T04:45:10;20.70;99.90
25250;DHT22;13201;51.148;13.738;2023-07-13T04:47:35;20.60;99.90
25250;DHT22;13201;51.148;13.738;2023-07-13T04:50:02;20.60;99.90
25250;DHT22;13201;51.148;13.738;2023-07-13T04:52:27;20.60;99.90
25250;DHT22;13201;51.148;13.738;2023-07-13T04:54:53;20.60;99.90
25250;DHT22;13201;51.148;13.738;2023-07-13T04:57:19;20.80;99.90
25250;DHT22;13201;51.148;13.738;2023-07-13T04:59:45;20.80;99.90
25250;DHT22;13201;51.148;13.738;2023-07-13T05:02:10;20.60;99.90
25250;DHT22;13201;51.148;13.738;2023-07-13T05:04:36;20.70;99.90
25250;DHT22;13201;51.148;13.738;2023-07-13T05:07:02;20.80;99.90
25250;DHT22;13201;51.148;13.738;2023-07-13T05:09:27;20.90;99.90
25250;DHT22;13201;51.148;13.738;2023-07-13T05:11:53;21.10;99.90
25250;DHT22;13201;51.148;13.738;2023-07-13T05:14:19;21.10;99.90
25250;DHT22;13201;51.148;13.738;2023-07-13T05:16:44;21.00;99.90
25250;DHT22;13201;51.148;13.738;2023-07-13T05:19:11;21.10;99.90
25250;DHT22;13201;51.148;13.738;2023-07-13T05:21:37;21.10;99.90
25250;DHT22;13201;51.148;13.738;2023-07-13T05:24:03;21.20;99.90
25250;DHT22;13201;51.148;13.738;2023-07-13T05:26:28;21.30;99.90
25250;DHT22;13201;51.148;13.738;2023-07-13T05:28:54;21.40;99.90
25250;DHT22;13201;51.148;13.738;2023-07-13T05:31:20;21.40;99.90
25250;DHT22;13201;51.148;13.738;2023-07-13T05:33:45;21.60;99.90
25250;DHT22;13201;51.148;13.738;2023-07-13T05:36:11;21.50;99.90
25250;DHT22;13201;51.148;13.738;2023-07-13T05:38:37;21.70;99.90
25250;DHT22;13201;51.148;13.738;2023-07-13T05:41:03;21.80;99.90
25250;DHT22;13201;51.148;13.738;2023-07-13T05:43:28;21.50;99.90
25250;DHT22;13201;51.148;13.738;2023-07-13T05:45:55;21.70;99.90
25250;DHT22;13201;51.148;13.738;2023-07-13T05:48:21;21.80;99.90
25250;DHT22;13201;51.148;13.738;2023-07-13T05:50:47;21.90;99.90
25250;DHT22;13201;51.148;13.738;2023-07-13T05:53:13;22.00;99.90
25250;DHT22;13201;51.148;13.738;2023-07-13T05:55:46;22.00;99.90
25250;DHT22;13201;51.148;13.738;2023-07-13T05:58:13;22.10;99.90
25250;DHT22;13201;51.148;13.738;2023-07-13T06:00:39;22.20;99.90
25250;DHT22;13201;51.148;13.738;2023-07-13T06:03:06;22.10;99.90
25250;DHT22;13201;51.148;13.738;2023-07-13T06:05:32;22.00;99.90
25250;DHT22;13201;51.148;13.738;2023-07-13T06:07:59;22.20;99.90
25250;DHT22;13201;51.148;13.738;2023-07-13T06:10:25;22.20;99.90
25250;DHT22;13201;51.148;13.738;2023-07-13T06:12:50;22.20;99.90
25250;DHT22;13201;51.148;13.738;2023-07-13T06:15:16;22.00;99.90
25250;DHT22;13201;51.148;13.738;2023-07-13T06:17:42;22.10;99.90
25250;DHT22;13201;51.148;13.738;2023-07-13T06:20:08;22.20;99.90
25250;DHT22;13201;51.148;13.738;2023-07-13T06:22:34;22.00;99.90
25250;DHT22;13201;51.148;13.738;2023-07-13T06:24:59;21.90;99.90
25250;DHT22;13201;51.148;13.738;2023-07-13T06:27:25;22.00;99.90
25250;DHT22;13201;51.148;13.738;2023-07-13T06:29:50;22.10;99.90
25250;DHT22;13201;51.148;13.738;2023-07-13T06:32:16;22.30;99.90
25250;DHT22;13201;51.148;13.738;2023-07-13T06:34:42;22.40;99.90
25250;DHT22;13201;51.148;13.738;2023-07-13T06:37:09;22.80;99.90
25250;DHT22;13201;51.148;13.738;2023-07-13T06:39:34;22.90;99.90
25250;DHT22;13201;51.148;13.738;2023-07-13T06:42:00;22.80;99.90
25250;DHT22;13201;51.148;13.738;2023-07-13T06:44:26;22.80;99.90
25250;DHT22;13201;51.148;13.738;2023-07-13T06:46:51;22.80;99.90
25250;DHT22;13201;51.148;13.738;2023-07-13T06:49:17;22.90;99.90
25250;DHT22;13201;51.148;13.738;2023-07-13T06:51:43;23.00;99.90
25250;DHT22;13201;51.148;13.738;2023-07-13T06:54:08;23.20;99.90
25250;DHT22;13201;51.148;13.738;2023-07-13T06:56:34;23.20;99.90
25250;DHT22;13201;51.148;13.738;2023-07-13T06:59:00;23.10;99.90
25250;DHT22;13201;51.148;13.738;2023-07-13T07:01:25;23.20;99.90
25250;DHT22;13201;51.148;13.738;2023-07-13T07:03:51;23.20;99.90
25250;DHT22;13201;51.148;13.738;2023-07-13T07:06:20;23.50;99.90
25250;DHT22;13201;51.148;13.738;2023-07-13T07:08:46;23.40;99.90
25250;DHT22;13201;51.148;13.738;2023-07-13T07:11:14;23.40;99.90
25250;DHT22;13201;51.148;13.738;2023-07-13T07:13:40;23.30;99.90
25250;DHT22;13201;51.148;13.738;2023-07-13T07:16:06;23.40;99.90
25250;DHT22;13201;51.148;13.738;2023-07-13T07:18:32;23.30;99.90
25250;DHT22;13201;51.148;13.738;2023-07-13T07:20:58;23.40;99.90
25250;DHT22;13201;51.148;13.738;2023-07-13T07:23:23;23.60;99.90
25250;DHT22;13201;51.148;13.738;2023-07-13T07:25:49;23.70;99.90
25250;DHT22;13201;51.148;13.738;2023-07-13T07:28:16;23.60;99.90
25250;DHT22;13201;51.148;13.738;2023-07-13T07:30:45;23.70;99.90
25250;DHT22;13201;51.148;13.738;2023-07-13T07:33:11;23.70;99.90
25250;DHT22;13201;51.148;13.738;2023-07-13T07:35:37;23.90;99.90
25250;DHT22;13201;51.148;13.738;2023-07-13T07:38:03;24.10;99.90
25250;DHT22;13201;51.148;13.738;2023-07-13T07:40:28;23.80;99.90
25250;DHT22;13201;51.148;13.738;2023-07-13T07:42:54;24.10;99.90
25250;DHT22;13201;51.148;13.738;2023-07-13T07:45:20;24.30;99.90
25250;DHT22;13201;51.148;13.738;2023-07-13T07:47:46;24.40;99.90
25250;DHT22;13201;51.148;13.738;2023-07-13T07:50:12;24.60;99.90
25250;DHT22;13201;51.148;13.738;2023-07-13T07:52:38;24.70;99.90
25250;DHT22;13201;51.148;13.738;2023-07-13T07:55:05;24.80;99.90
25250;DHT22;13201;51.148;13.738;2023-07-13T07:57:31;24.90;99.90
25250;DHT22;13201;51.148;13.738;2023-07-13T07:59:57;24.60;99.90
25250;DHT22;13201;51.148;13.738;2023-07-13T08:02:24;24.40;99.90
25250;DHT22;13201;51.148;13.738;2023-07-13T08:04:49;24.50;99.90
25250;DHT22;13201;51.148;13.738;2023-07-13T08:07:15;24.40;99.90
25250;DHT22;13201;51.148;13.738;2023-07-13T08:09:41;24.30;99.90
25250;DHT22;13201;51.148;13.738;2023-07-13T08:12:06;24.20;99.90
25250;DHT22;13201;51.148;13.738;2023-07-13T08:14:32;24.20;99.90
25250;DHT22;13201;51.148;13.738;2023-07-13T08:16:58;24.50;99.90
25250;DHT22;13201;51.148;13.738;2023-07-13T08:19:24;24.40;99.90
25250;DHT22;13201;51.148;13.738;2023-07-13T08:21:49;24.40;99.90
25250;DHT22;13201;51.148;13.738;2023-07-13T08:24:15;24.50;99.90
25250;DHT22;13201;51.148;13.738;2023-07-13T08:26:41;24.50;99.90
25250;DHT22;13201;51.148;13.738;2023-07-13T08:29:06;24.50;99.90
25250;DHT22;13201;51.148;13.738;2023-07-13T08:31:32;24.70;99.90
25250;DHT22;13201;51.148;13.738;2023-07-13T08:33:58;24.60;99.90
25250;DHT22;13201;51.148;13.738;2023-07-13T08:36:24;25.00;99.90
25250;DHT22;13201;51.148;13.738;2023-07-13T08:38:50;25.10;99.90
25250;DHT22;13201;51.148;13.738;2023-07-13T08:41:17;25.20;99.90
25250;DHT22;13201;51.148;13.738;2023-07-13T08:43:48;25.30;99.90
25250;DHT22;13201;51.148;13.738;2023-07-13T08:46:16;25.20;99.30
25250;DHT22;13201;51.148;13.738;2023-07-13T08:53:48;25.30;98.70
25250;DHT22;13201;51.148;13.738;2023-07-13T08:56:20;25.10;98.20
25250;DHT22;13201;51.148;13.738;2023-07-13T08:58:51;25.10;98.30
25250;DHT22;13201;51.148;13.738;2023-07-13T09:04:29;25.00;98.70
25250;DHT22;13201;51.148;13.738;2023-07-13T09:12:14;25.30;99.00
25250;DHT22;13201;51.148;13.738;2023-07-13T09:14:45;25.60;98.80
25250;DHT22;13201;51.148;13.738;2023-07-13T09:17:18;25.70;99.00
25250;DHT22;13201;51.148;13.738;2023-07-13T09:19:48;25.90;98.10
25250;DHT22;13201;51.148;13.738;2023-07-13T09:22:19;26.00;97.70
25250;DHT22;13201;51.148;13.738;2023-07-13T09:27:39;25.90;97.80
25250;DHT22;13201;51.148;13.738;2023-07-13T09:32:47;25.70;97.00
25250;DHT22;13201;51.148;13.738;2023-07-13T09:35:19;25.00;96.50
25250;DHT22;13201;51.148;13.738;2023-07-13T09:37:46;25.00;97.30
25250;DHT22;13201;51.148;13.738;2023-07-13T09:40:20;25.40;97.30
25250;DHT22;13201;51.148;13.738;2023-07-13T09:42:48;25.50;96.60
25250;DHT22;13201;51.148;13.738;2023-07-13T09:45:27;25.50;96.80
25250;DHT22;13201;51.148;13.738;2023-07-13T09:48:06;25.60;96.60
25250;DHT22;13201;51.148;13.738;2023-07-13T09:50:33;26.00;96.50
25250;DHT22;13201;51.148;13.738;2023-07-13T09:53:01;26.00;96.00
25250;DHT22;13201;51.148;13.738;2023-07-13T09:55:37;26.50;96.70
25250;DHT22;13201;51.148;13.738;2023-07-13T10:00:36;26.40;95.60
25250;DHT22;13201;51.148;13.738;2023-07-13T10:03:25;26.20;95.70
25250;DHT22;13201;51.148;13.738;2023-07-13T10:05:51;26.40;95.70
25250;DHT22;13201;51.148;13.738;2023-07-13T10:08:28;26.50;95.10
25250;DHT22;13201;51.148;13.738;2023-07-13T10:13:42;26.80;94.80
25250;DHT22;13201;51.148;13.738;2023-07-13T10:16:08;26.90;94.80
25250;DHT22;13201;51.148;13.738;2023-07-13T10:18:51;27.60;95.30
25250;DHT22;13201;51.148;13.738;2023-07-13T10:21:20;27.50;93.90
25250;DHT22;13201;51.148;13.738;2023-07-13T10:23:56;27.40;93.60
25250;DHT22;13201;51.148;13.738;2023-07-13T10:26:27;27.60;94.20
25250;DHT22;13201;51.148;13.738;2023-07-13T10:28:59;27.30;93.30
25250;DHT22;13201;51.148;13.738;2023-07-13T10:31:26;27.40;93.10
25250;DHT22;13201;51.148;13.738;2023-07-13T10:33:52;27.00;93.00
25250;DHT22;13201;51.148;13.738;2023-07-13T10:38:53;27.70;92.80
25250;DHT22;13201;51.148;13.738;2023-07-13T10:41:26;27.20;92.60
25250;DHT22;13201;51.148;13.738;2023-07-13T10:43:55;27.20;93.40
25250;DHT22;13201;51.148;13.738;2023-07-13T10:46:25;27.30;93.70
25250;DHT22;13201;51.148;13.738;2023-07-13T10:48:58;27.80;93.90
25250;DHT22;13201;51.148;13.738;2023-07-13T10:51:25;28.00;92.30
25250;DHT22;13201;51.148;13.738;2023-07-13T10:54:11;28.10;93.00
25250;DHT22;13201;51.148;13.738;2023-07-13T10:56:41;27.90;92.70
25250;DHT22;13201;51.148;13.738;2023-07-13T11:04:13;27.30;92.90
25250;DHT22;13201;51.148;13.738;2023-07-13T11:06:41;26.80;92.90
25250;DHT22;13201;51.148;13.738;2023-07-13T11:11:56;26.60;91.80
25250;DHT22;13201;51.148;13.738;2023-07-13T11:14:44;26.60;92.50
25250;DHT22;13201;51.148;13.738;2023-07-13T11:17:49;26.20;93.00
25250;DHT22;13201;51.148;13.738;2023-07-13T11:25:44;27.10;92.90
25250;DHT22;13201;51.148;13.738;2023-07-13T11:28:15;27.30;91.80
25250;DHT22;13201;51.148;13.738;2023-07-13T11:33:31;27.80;91.20
25250;DHT22;13201;51.148;13.738;2023-07-13T11:36:15;27.40;92.30
25250;DHT22;13201;51.148;13.738;2023-07-13T11:38:42;26.90;93.30
25250;DHT22;13201;51.148;13.738;2023-07-13T11:41:27;26.60;93.60
25250;DHT22;13201;51.148;13.738;2023-07-13T11:44:02;26.70;93.50
25250;DHT22;13201;51.148;13.738;2023-07-13T11:46:30;26.90;93.30
25250;DHT22;13201;51.148;13.738;2023-07-13T11:48:56;26.90;93.20
25250;DHT22;13201;51.148;13.738;2023-07-13T11:51:28;27.20;92.40
25250;DHT22;13201;51.148;13.738;2023-07-13T11:53:55;27.60;92.60
25250;DHT22;13201;51.148;13.738;2023-07-13T11:56:23;27.90;92.20
25250;DHT22;13201;51.148;13.738;2023-07-13T11:58:51;27.60;91.40
25250;DHT22;13201;51.148;13.738;2023-07-13T12:01:24;27.60;92.00
25250;DHT22;13201;51.148;13.738;2023-07-13T12:03:50;27.70;91.20
25250;DHT22;13201;51.148;13.738;2023-07-13T12:06:27;28.30;90.60
25250;DHT22;13201;51.148;13.738;2023-07-13T12:08:56;28.50;90.20
25250;DHT22;13201;51.148;13.738;2023-07-13T12:11:22;28.50;90.40
25250;DHT22;13201;51.148;13.738;2023-07-13T12:13:48;28.80;89.10
25250;DHT22;13201;51.148;13.738;2023-07-13T12:16:17;29.30;89.40
25250;DHT22;13201;51.148;13.738;2023-07-13T12:18:46;29.40;88.10
25250;DHT22;13201;51.148;13.738;2023-07-13T12:21:16;29.60;87.80
25250;DHT22;13201;51.148;13.738;2023-07-13T12:23:44;29.40;86.80
25250;DHT22;13201;51.148;13.738;2023-07-13T12:26:11;29.50;88.10
25250;DHT22;13201;51.148;13.738;2023-07-13T12:28:43;29.50;85.80
25250;DHT22;13201;51.148;13.738;2023-07-13T12:36:35;29.10;84.50
25250;DHT22;13201;51.148;13.738;2023-07-13T12:39:13;29.20;82.90
25250;DHT22;13201;51.148;13.738;2023-07-13T12:41:39;29.00;81.50
25250;DHT22;13201;51.148;13.738;2023-07-13T12:44:11;29.70;81.70
25250;DHT22;13201;51.148;13.738;2023-07-13T12:46:37;30.00;81.20
25250;DHT22;13201;51.148;13.738;2023-07-13T12:49:06;29.20;80.10
25250;DHT22;13201;51.148;13.738;2023-07-13T12:51:32;28.70;79.60
25250;DHT22;13201;51.148;13.738;2023-07-13T12:54:06;29.00;81.90
25250;DHT22;13201;51.148;13.738;2023-07-13T12:56:36;29.10;81.50
25250;DHT22;13201;51.148;13.738;2023-07-13T12:59:03;28.80;81.60
25250;DHT22;13201;51.148;13.738;2023-07-13T13:01:33;29.00;81.40
25250;DHT22;13201;51.148;13.738;2023-07-13T13:04:02;28.90;82.10
25250;DHT22;13201;51.148;13.738;2023-07-13T13:06:34;28.30;82.20
25250;DHT22;13201;51.148;13.738;2023-07-13T13:09:02;28.80;81.90
25250;DHT22;13201;51.148;13.738;2023-07-13T13:11:31;29.20;81.80
25250;DHT22;13201;51.148;13.738;2023-07-13T13:13:57;29.60;81.80
25250;DHT22;13201;51.148;13.738;2023-07-13T13:16:32;29.50;80.00
25250;DHT22;13201;51.148;13.738;2023-07-13T13:19:18;28.80;80.60
25250;DHT22;13201;51.148;13.738;2023-07-13T13:21:45;29.30;80.70
25250;DHT22;13201;51.148;13.738;2023-07-13T13:24:15;29.90;80.00
25250;DHT22;13201;51.148;13.738;2023-07-13T13:26:42;29.10;81.10
25250;DHT22;13201;51.148;13.738;2023-07-13T13:29:17;29.00;80.50
25250;DHT22;13201;51.148;13.738;2023-07-13T13:31:44;29.10;81.40
25250;DHT22;13201;51.148;13.738;2023-07-13T13:34:12;29.40;80.10
25250;DHT22;13201;51.148;13.738;2023-07-13T13:36:39;29.00;80.50
25250;DHT22;13201;51.148;13.738;2023-07-13T13:41:45;29.30;80.50
25250;DHT22;13201;51.148;13.738;2023-07-13T13:44:16;30.10;80.10
25250;DHT22;13201;51.148;13.738;2023-07-13T13:46:44;30.40;79.40
25250;DHT22;13201;51.148;13.738;2023-07-13T13:49:15;30.40;78.00
25250;DHT22;13201;51.148;13.738;2023-07-13T13:51:41;30.50;79.50
25250;DHT22;13201;51.148;13.738;2023-07-13T13:54:12;31.00;78.30
25250;DHT22;13201;51.148;13.738;2023-07-13T13:56:38;30.70;76.50
25250;DHT22;13201;51.148;13.738;2023-07-13T13:59:04;30.50;75.80
25250;DHT22;13201;51.148;13.738;2023-07-13T14:01:31;29.50;77.50
25250;DHT22;13201;51.148;13.738;2023-07-13T14:03:56;30.40;77.00
25250;DHT22;13201;51.148;13.738;2023-07-13T14:06:22;30.20;75.70
25250;DHT22;13201;51.148;13.738;2023-07-13T14:08:48;30.00;75.50
25250;DHT22;13201;51.148;13.738;2023-07-13T14:11:16;30.60;76.40
25250;DHT22;13201;51.148;13.738;2023-07-13T14:13:54;30.40;76.20
25250;DHT22;13201;51.148;13.738;2023-07-13T14:16:22;30.10;76.30
25250;DHT22;13201;51.148;13.738;2023-07-13T14:18:49;29.50;76.80
25250;DHT22;13201;51.148;13.738;2023-07-13T14:21:17;29.40;76.00
25250;DHT22;13201;51.148;13.738;2023-07-13T14:23:44;29.20;76.60
25250;DHT22;13201;51.148;13.738;2023-07-13T14:26:17;28.80;75.70
25250;DHT22;13201;51.148;13.738;2023-07-13T14:28:45;28.30;76.30
25250;DHT22;13201;51.148;13.738;2023-07-13T14:31:12;28.50;76.60
25250;DHT22;13201;51.148;13.738;2023-07-13T14:33:39;29.30;77.50
25250;DHT22;13201;51.148;13.738;2023-07-13T14:36:38;29.60;75.70
25250;DHT22;13201;51.148;13.738;2023-07-13T14:39:20;29.70;76.00
25250;DHT22;13201;51.148;13.738;2023-07-13T14:41:50;30.60;76.10
25250;DHT22;13201;51.148;13.738;2023-07-13T14:44:20;30.40;74.30
25250;DHT22;13201;51.148;13.738;2023-07-13T14:46:47;30.00;72.70
25250;DHT22;13201;51.148;13.738;2023-07-13T14:52:23;29.50;74.00
25250;DHT22;13201;51.148;13.738;2023-07-13T14:54:49;28.90;73.00
25250;DHT22;13201;51.148;13.738;2023-07-13T14:57:19;29.70;74.60
25250;DHT22;13201;51.148;13.738;2023-07-13T14:59:46;29.50;72.20
25250;DHT22;13201;51.148;13.738;2023-07-13T15:02:34;29.70;71.30
25250;DHT22;13201;51.148;13.738;2023-07-13T15:05:04;29.20;71.60
25250;DHT22;13201;51.148;13.738;2023-07-13T15:07:30;30.00;71.60
25250;DHT22;13201;51.148;13.738;2023-07-13T15:09:56;29.60;72.90
25250;DHT22;13201;51.148;13.738;2023-07-13T15:12:22;29.70;71.50
25250;DHT22;13201;51.148;13.738;2023-07-13T15:14:47;29.70;70.70
25250;DHT22;13201;51.148;13.738;2023-07-13T15:19:59;29.80;70.40
25250;DHT22;13201;51.148;13.738;2023-07-13T15:22:25;29.90;71.20
25250;DHT22;13201;51.148;13.738;2023-07-13T15:24:50;29.00;70.60
25250;DHT22;13201;51.148;13.738;2023-07-13T15:27:17;28.50;70.50
25250;DHT22;13201;51.148;13.738;2023-07-13T15:29:42;28.80;71.20
25250;DHT22;13201;51.148;13.738;2023-07-13T15:32:13;29.40;70.40
25250;DHT22;13201;51.148;13.738;2023-07-13T15:34:39;29.90;69.40
25250;DHT22;13201;51.148;13.738;2023-07-13T15:37:14;30.10;69.00
25250;DHT22;13201;51.148;13.738;2023-07-13T15:39:40;29.90;68.80
25250;DHT22;13201;51.148;13.738;2023-07-13T15:42:18;29.70;69.10
25250;DHT22;13201;51.148;13.738;2023-07-13T15:44:44;30.20;67.80
25250;DHT22;13201;51.148;13.738;2023-07-13T15:47:14;31.00;68.10
25250;DHT22;13201;51.148;13.738;2023-07-13T15:49:41;30.70;66.60
25250;DHT22;13201;51.148;13.738;2023-07-13T15:52:22;30.20;66.00
25250;DHT22;13201;51.148;13.738;2023-07-13T15:54:49;30.10;66.60
25250;DHT22;13201;51.148;13.738;2023-07-13T15:57:15;30.20;67.20
25250;DHT22;13201;51.148;13.738;2023-07-13T15:59:41;30.70;66.40
25250;DHT22;13201;51.148;13.738;2023-07-13T16:02:19;30.50;65.50
25250;DHT22;13201;51.148;13.738;2023-07-13T16:04:46;29.90;65.30
25250;DHT22;13201;51.148;13.738;2023-07-13T16:07:15;30.50;65.50
25250;DHT22;13201;51.148;13.738;2023-07-13T16:09:43;30.70;64.60
25250;DHT22;13201;51.148;13.738;2023-07-13T16:12:11;30.90;63.30
25250;DHT22;13201;51.148;13.738;2023-07-13T16:14:38;31.00;63.70
25250;DHT22;13201;51.148;13.738;2023-07-13T16:17:05;31.10;63.60
25250;DHT22;13201;51.148;13.738;2023-07-13T16:19:31;31.20;63.50
25250;DHT22;13201;51.148;13.738;2023-07-13T16:21:59;29.80;63.40
25250;DHT22;13201;51.148;13.738;2023-07-13T16:24:26;29.80;64.60
25250;DHT22;13201;51.148;13.738;2023-07-13T16:26:52;29.90;63.80
25250;DHT22;13201;51.148;13.738;2023-07-13T16:29:24;30.20;64.20
25250;DHT22;13201;51.148;13.738;2023-07-13T16:32:00;30.50;63.10
25250;DHT22;13201;51.148;13.738;2023-07-13T16:34:28;30.40;62.40
25250;DHT22;13201;51.148;13.738;2023-07-13T16:36:54;30.50;63.40
25250;DHT22;13201;51.148;13.738;2023-07-13T16:39:20;30.20;63.30
25250;DHT22;13201;51.148;13.738;2023-07-13T16:41:48;31.20;63.10
25250;DHT22;13201;51.148;13.738;2023-07-13T16:44:17;31.20;63.50